METAR Data
IDs: Format: Raw Decoded Include TAF

Data at: 0329 UTC 25 Jan 2020

PAMB 250256Z AUTO 28003KT 10SM CLR M17/M22 A2977 RMK AO2 SLP087 T11721222 56006 FZRANO $
PAMB 250156Z AUTO 21006KT 10SM CLR M17/M23 A2978 RMK AO2 SLP088 T11671233 FZRANO $
PAMB 250056Z AUTO 00000KT 10SM CLR M11/M18 A2978 RMK AO2 SLP089 T11111183 FZRANO $
PAMB 242356Z AUTO 29003KT 10SM CLR M12/M19 A2979 RMK AO2 SLP093 T11171194 11089 21200 58013 FZRANO $
PAMB 242256Z AUTO 20003KT 10SM CLR M13/M22 A2980 RMK AO2 SLP098 T11331217 FZRANO $
PAMB 242156Z AUTO 00000KT 10SM CLR M11/M18 A2982 RMK AO2 SLP103 T11111178 FZRANO $
PAMB 242056Z AUTO 06004KT 10SM CLR M16/M21 A2983 RMK AO2 SLP106 T11561211 50007 FZRANO $
PAMB 241956Z AUTO 06004KT 10SM CLR M16/M21 A2983 RMK AO2 SLP106 T11611206 FZRANO $
PAMB 241856Z AUTO 06008KT 10SM CLR M20/M24 A2982 RMK AO2 SLP105 T12001239 FZRANO $
PAMB 241756Z AUTO 29006KT 10SM CLR M16/M21 A2981 RMK AO2 SLP098 T11611206 11150 21167 56012 FZRANO $
PAMB 241656Z AUTO 29010KT 10SM CLR M15/M20 A2981 RMK AO2 SLP099 T11501200 FZRANO $
PAMB 241556Z AUTO 30009KT 10SM CLR M15/M19 A2982 RMK AO2 SLP104 T11501194 FZRANO $
PAMB 241456Z AUTO 29006KT 10SM CLR M16/M20 A2984 RMK AO2 SLP111 T11611200 58017 FZRANO $
PAMB 241356Z AUTO 29006KT 10SM CLR M16/M20 A2986 RMK AO2 SLP117 T11611200 FZRANO $
PAMB 241256Z AUTO 29008KT 10SM CLR M16/M20 A2988 RMK AO2 SLP123 T11611200 FZRANO $
PAMB 241156Z AUTO 30009KT 10SM CLR M16/M20 A2989 RMK AO2 SLP128 T11611200 11156 21200 58017 FZRANO $
PAMB 241056Z AUTO 28007KT 10SM CLR M17/M21 A2992 RMK AO2 SLP137 T11671206 FZRANO $
PAMB 240956Z AUTO 28007KT 10SM CLR M17/M22 A2993 RMK AO2 SLP139 T11721217 FZRANO $
PAMB 240856Z AUTO 29009KT 10SM CLR M17/M21 A2994 RMK AO2 SLP144 T11671206 410941206 55006 FZRANO $
PAMB 240756Z AUTO 29007KT 10SM CLR M17/M21 A2994 RMK AO2 SLP144 T11671206 FZRANO $
PAMB 240656Z AUTO 30007KT 10SM CLR M18/M22 A2995 RMK AO2 SLP148 T11831217 FZRANO $
PAMB 240556Z AUTO 28005KT 10SM CLR M18/M22 A2996 RMK AO2 SLP150 T11831222 11111 21189 58002 FZRANO $
PAMB 240456Z AUTO 28003KT 10SM CLR M18/M22 A2997 RMK AO2 SLP155 T11831217 FZRANO $
PAMB 240356Z AUTO 00000KT 10SM CLR M18/M22 A2997 RMK AO2 SLP155 T11831217 FZRANO $
PAMB 240256Z AUTO 00000KT 10SM CLR M16/M20 A2996 RMK AO2 SLP152 T11611200 55003 FZRANO $
PAMB 240156Z AUTO 30007G17KT 210V360 9SM CLR M13/M18 A2996 RMK AO2 SLP150 T11331178 FZRANO $
PAMB 240056Z AUTO 29004KT 10SM CLR M11/M16 A2996 RMK AO2 SLP150 T11111156 FZRANO $
PAMB 232356Z AUTO VRB03KT 9SM CLR M11/M16 A2997 RMK AO2 SLP154 60000 T11111156 11094 21172 51003 FZRANO $
PAMB 232256Z AUTO 00000KT 9SM CLR M10/M15 A2997 RMK AO2 SLP153 T11001150 FZRANO $
PAMB 232156Z AUTO 31004KT 9SM CLR M12/M16 A2997 RMK AO2 SLP153 T11171161 FZRANO $
PAMB 232056Z AUTO 05006KT 9SM CLR M14/M18 A2996 RMK AO2 SLP151 60000 T11441178 51020 FZRANO $
PAMB 231956Z AUTO 02007KT 9SM CLR M16/M19 A2995 RMK AO2 SNB06E20 SLP147 P0000 T11611189 FZRANO $
PAMB 231856Z AUTO 31006KT 10SM CLR M14/M17 A2992 RMK AO2 SLP136 T11391167 FZRANO $
PAMB 231756Z AUTO 30010KT 10SM CLR M14/M17 A2990 RMK AO2 SLP131 60000 T11391167 11128 21206 55000 FZRANO $
PAMB 231656Z AUTO 31009KT 10SM CLR M13/M15 A2989 RMK AO2 SLP127 T11281150 FZRANO $
PAMB 231556Z AUTO 31005KT 9SM CLR M17/M18 A2989 RMK AO2 SLP128 T11671183 FZRANO $